Morehead City, NC

3:21 PM EST on December 18, 2014 (GMT -0500)
MoreheadCityWeather.Com | Change Station
CLOSE
Current Station
Personal Weather Station
Location: Morehead City, NC
Elevation: 10 ft
Nearby Weather Stations

Elev 10 ft 34.73 °N, 76.75 °W | Updated 12 seconds ago

Clear
Clear
50.7 °F
Feels Like 50.7 °F
N
2.0
Wind Variable Wind from ESE
Gusts 5.0 mph

Today
High -- | Low -- °F
--% Chance of Precip.
Yesterday
High -- | Low -- °F
Precip. -- in
7:08 AM 4:58 PM
Waning Crescent, 12% visible
Pressure 30.11 in
Visibility 10.0 miles
Clouds Clear
Dew Point 34 °F
Humidity 53%
Rainfall 0.00 in
Snow Depth Not available.
UV 1 out of 12
Pollen 2.00 out of 12
Air Quality Not available.
Flu Activity Not available.
METAR KMRH 181958Z AUTO 04004KT 10SM CLR 11/M02 A3010 RMK AO2 SLP194 I1000 T01111017 TSNO

More Conditions Fewer Conditions

Pressure 30.11 in
Visibility 10.0 miles
Clouds Clear
Dew Point 34 °F
Humidity 53%
Rainfall 0.00 in
Snow Depth Not available.
UV 1 out of 12
Pollen 2.00 out of 12
Air Quality Not available.
Flu Activity Not available.
METAR KMRH 181958Z AUTO 04004KT 10SM CLR 11/M02 A3010 RMK AO2 SLP194 I1000 T01111017 TSNO

More Conditions Fewer Conditions

10-Day Weather Forecast

Almanac

Astronomy

Dec. 18, 2014 Rise Set
Actual Time
Civil Twilight
Nautical Twilight
Astronomical Twilight
Moon
Length of Visible Light
Length of Day
Tomorrow will be .
, % of the Moon is Illuminated

Today's Extremes

State Highs State Lows

Community

WunderPhotos

Upload Photos

1,778,993 photos uploaded!

WunderBlogs® & News

Nearby

Air Quality

  Air Quality AQ Index Pollutant
Not available.

Snow Depth

Station Depth Elevation

Earthquake Activity

City Distance Mag. Time & Date
Minimum magnitude displayed is 2.5.

Coastal Water Temperatures

Place Temperature

Nearby Weather Stations